Time;durP1;ratioP1;P1;durP2;ratioP2;P2;SDS_P1;SDS_P2;PMS_P1;PMS_P2;Temp;Humidity;BMP_temperature;BMP_pressure;BME280_temperature;BME280_humidity;BME280_pressure;Samples;Min_cycle;Max_cycle;Signal;HPM_P1;HPM_P2
2023/05/05 00:00:54;;;;;;;8.73;4.20;;;;;;;;;;5059039;28;20201;-27
2023/05/05 00:03:22;;;;;;;8.40;4.47;;;;;;;;;;5056437;28;20222;-28
2023/05/05 00:05:49;;;;;;;5.63;3.97;;;;;;;;;;5053025;28;20205;-29
2023/05/05 00:08:16;;;;;;;6.67;4.67;;;;;;;;;;5060078;28;20202;-30
2023/05/05 00:10:45;;;;;;;5.53;4.43;;;;;;;;;;5057515;28;20210;-29
2023/05/05 00:13:13;;;;;;;4.33;3.93;;;;;;;;;;5063622;28;20287;-29
2023/05/05 00:15:42;;;;;;;5.20;4.70;;;;;;;;;;5046484;28;20210;-30
2023/05/05 00:18:11;;;;;;;8.40;5.23;;;;;;;;;;5062187;28;20208;-30
2023/05/05 00:20:38;;;;;;;6.00;4.90;;;;;;;;;;5045005;28;20440;-27
2023/05/05 00:23:05;;;;;;;6.73;4.43;;;;;;;;;;5060719;28;20227;-30
2023/05/05 00:25:32;;;;;;;3.90;3.57;;;;;;;;;;5059817;28;20217;-28
2023/05/05 00:27:59;;;;;;;5.67;4.77;;;;;;;;;;5085868;28;20219;-29
2023/05/05 00:30:27;;;;;;;5.27;4.77;;;;;;;;;;5064529;28;20240;-30
2023/05/05 00:32:55;;;;;;;4.53;4.13;;;;;;;;;;5050799;28;20225;-28
2023/05/05 00:35:23;;;;;;;5.60;4.40;;;;;;;;;;5049627;28;20202;-29
2023/05/05 00:37:51;;;;;;;6.30;5.10;;;;;;;;;;5045148;28;20296;-26
2023/05/05 00:40:18;;;;;;;5.10;4.60;;;;;;;;;;5057348;28;20207;-29
2023/05/05 00:42:46;;;;;;;7.43;4.17;;;;;;;;;;5085871;28;20211;-28
2023/05/05 00:45:13;;;;;;;7.03;5.13;;;;;;;;;;5047468;28;20221;-28
2023/05/05 00:47:42;;;;;;;5.93;4.90;;;;;;;;;;5048445;28;20232;-31
2023/05/05 00:50:09;;;;;;;8.77;5.03;;;;;;;;;;5062245;28;20209;-29
2023/05/05 00:52:38;;;;;;;5.57;4.23;;;;;;;;;;5056181;28;20235;-27
2023/05/05 00:55:06;;;;;;;4.37;3.93;;;;;;;;;;5064668;28;20217;-32
2023/05/05 00:57:33;;;;;;;4.50;4.10;;;;;;;;;;5074177;28;20205;-26
2023/05/05 01:00:01;;;;;;;4.17;3.77;;;;;;;;;;5061098;28;20214;-31
2023/05/05 01:02:29;;;;;;;4.53;4.00;;;;;;;;;;5050638;28;20209;-28
2023/05/05 01:04:57;;;;;;;9.03;5.07;;;;;;;;;;5052483;28;20268;-31
2023/05/05 01:07:29;;;;;;;5.53;4.63;;;;;;;;;;5043594;28;20213;-28
2023/05/05 01:10:00;;;;;;;7.10;4.30;;;;;;;;;;5044555;28;20293;-27
2023/05/05 01:12:31;;;;;;;7.40;4.47;;;;;;;;;;5064615;28;20237;-32
2023/05/05 01:15:01;;;;;;;4.70;4.20;;;;;;;;;;5064340;28;20233;-26
2023/05/05 01:17:34;;;;;;;6.20;4.60;;;;;;;;;;5046333;28;20213;-31
2023/05/05 01:20:11;;;;;;;7.37;4.67;;;;;;;;;;5043608;28;20478;-29
2023/05/05 01:22:42;;;;;;;8.33;4.40;;;;;;;;;;5058286;28;20313;-26
2023/05/05 01:25:27;;;;;;;5.27;4.50;;;;;;;;;;5048605;28;20226;-30
2023/05/05 01:28:01;;;;;;;5.27;4.00;;;;;;;;;;5051165;28;20201;-29
2023/05/05 01:30:37;;;;;;;6.43;4.17;;;;;;;;;;5065294;28;20208;-30
2023/05/05 01:33:07;;;;;;;5.10;4.53;;;;;;;;;;5056126;28;20217;-27
2023/05/05 01:35:38;;;;;;;4.67;4.10;;;;;;;;;;5053781;28;20205;-25
2023/05/05 01:38:08;;;;;;;4.83;4.20;;;;;;;;;;5053072;28;20210;-30
2023/05/05 01:40:38;;;;;;;5.00;4.50;;;;;;;;;;5067094;28;20202;-29
2023/05/05 01:43:07;;;;;;;4.63;4.23;;;;;;;;;;5068072;28;20201;-28
2023/05/05 01:45:36;;;;;;;5.63;4.37;;;;;;;;;;5063909;28;20205;-26
2023/05/05 01:48:04;;;;;;;5.93;4.40;;;;;;;;;;5065316;28;20217;-29
2023/05/05 01:50:33;;;;;;;6.80;3.90;;;;;;;;;;5047018;28;20209;-27
2023/05/05 01:53:02;;;;;;;5.80;4.10;;;;;;;;;;5060043;28;20221;-40
2023/05/05 01:55:30;;;;;;;7.60;4.73;;;;;;;;;;5062478;28;20262;-34
2023/05/05 01:57:58;;;;;;;4.50;4.10;;;;;;;;;;5091364;28;20213;-31
2023/05/05 02:00:26;;;;;;;5.70;4.70;;;;;;;;;;5066609;28;20201;-33
2023/05/05 02:02:54;;;;;;;4.97;4.40;;;;;;;;;;5063842;28;20190;-34
2023/05/05 02:05:23;;;;;;;5.13;4.53;;;;;;;;;;5053258;28;20201;-34
2023/05/05 02:07:52;;;;;;;5.73;4.53;;;;;;;;;;5055233;28;20208;-41
2023/05/05 02:10:19;;;;;;;4.77;3.67;;;;;;;;;;5058955;28;20383;-35
2023/05/05 02:12:48;;;;;;;4.50;3.97;;;;;;;;;;5048306;28;20244;-39
2023/05/05 02:15:16;;;;;;;4.50;4.07;;;;;;;;;;5054393;28;20234;-36
2023/05/05 02:17:43;;;;;;;4.60;4.13;;;;;;;;;;5063593;28;20209;-37
2023/05/05 02:20:12;;;;;;;7.17;4.30;;;;;;;;;;5059461;28;20206;-34
2023/05/05 02:22:39;;;;;;;4.57;4.07;;;;;;;;;;5051085;28;20210;-38
2023/05/05 02:25:09;;;;;;;5.80;4.43;;;;;;;;;;5062513;28;20332;-37
2023/05/05 02:27:37;;;;;;;6.80;4.27;;;;;;;;;;5068085;28;20205;-33
2023/05/05 02:30:07;;;;;;;5.10;3.70;;;;;;;;;;5057957;28;20214;-35
2023/05/05 02:32:36;;;;;;;6.90;5.07;;;;;;;;;;5048952;28;20222;-35
2023/05/05 02:35:07;;;;;;;5.13;4.63;;;;;;;;;;5064555;28;20301;-40
2023/05/05 02:37:36;;;;;;;6.27;4.93;;;;;;;;;;5059146;28;20201;-36
2023/05/05 02:40:05;;;;;;;5.47;4.97;;;;;;;;;;5055196;28;20209;-32
2023/05/05 02:42:35;;;;;;;5.83;4.30;;;;;;;;;;5047254;28;20228;-31
2023/05/05 02:45:12;;;;;;;6.07;4.20;;;;;;;;;;5050564;28;20226;-33
2023/05/05 02:47:39;;;;;;;4.97;4.33;;;;;;;;;;5059605;28;20205;-31
2023/05/05 02:50:07;;;;;;;7.53;4.03;;;;;;;;;;5065621;28;20209;-35
2023/05/05 02:52:35;;;;;;;6.03;4.70;;;;;;;;;;5061020;28;20252;-40
2023/05/05 02:55:03;;;;;;;8.30;4.63;;;;;;;;;;5071229;28;20225;-34
2023/05/05 02:57:34;;;;;;;6.03;4.53;;;;;;;;;;5084372;28;20254;-36
2023/05/05 03:00:06;;;;;;;5.20;4.70;;;;;;;;;;5065881;28;20216;-36
2023/05/05 03:02:40;;;;;;;4.83;4.13;;;;;;;;;;5051124;28;20240;-34
2023/05/05 03:05:11;;;;;;;8.57;4.90;;;;;;;;;;5062662;28;20228;-40
2023/05/05 03:07:39;;;;;;;5.37;4.37;;;;;;;;;;5058845;28;20519;-36
2023/05/05 03:10:08;;;;;;;5.93;5.27;;;;;;;;;;5057983;28;20203;-38
2023/05/05 03:12:38;;;;;;;5.50;5.00;;;;;;;;;;5066708;28;20233;-35
2023/05/05 03:15:09;;;;;;;7.20;4.70;;;;;;;;;;5059319;28;20233;-35
2023/05/05 03:17:36;;;;;;;5.63;4.87;;;;;;;;;;5063426;28;20258;-33
2023/05/05 03:20:04;;;;;;;5.40;4.90;;;;;;;;;;5061992;28;20214;-34
2023/05/05 03:22:31;;;;;;;10.03;4.60;;;;;;;;;;5050072;28;20214;-34
2023/05/05 03:24:58;;;;;;;6.00;4.60;;;;;;;;;;5056591;28;20240;-37
2023/05/05 03:27:25;;;;;;;8.30;4.90;;;;;;;;;;5084503;28;20302;-37
2023/05/05 03:29:52;;;;;;;6.97;4.57;;;;;;;;;;5054056;28;20197;-33
2023/05/05 03:32:22;;;;;;;6.17;4.10;;;;;;;;;;5048461;28;20225;-33
2023/05/05 03:34:49;;;;;;;4.50;3.70;;;;;;;;;;5046094;28;20228;-38
2023/05/05 03:37:16;;;;;;;4.23;3.77;;;;;;;;;;5045836;28;20284;-40
2023/05/05 03:39:44;;;;;;;5.10;3.70;;;;;;;;;;5055331;28;20209;-39
2023/05/05 03:42:11;;;;;;;8.50;4.50;;;;;;;;;;5074812;28;20208;-35
2023/05/05 03:44:38;;;;;;;5.70;4.97;;;;;;;;;;5074908;28;20216;-40
2023/05/05 03:47:05;;;;;;;5.37;4.33;;;;;;;;;;5057807;28;20224;-34
2023/05/05 03:49:34;;;;;;;4.73;3.63;;;;;;;;;;5047271;28;20220;-37
2023/05/05 03:52:01;;;;;;;6.83;4.37;;;;;;;;;;5050238;28;20206;-36
2023/05/05 03:54:28;;;;;;;6.13;4.60;;;;;;;;;;5047308;28;20229;-32
2023/05/05 03:56:55;;;;;;;4.67;4.03;;;;;;;;;;5068106;28;20203;-34
2023/05/05 03:59:22;;;;;;;6.57;4.30;;;;;;;;;;5073657;28;20208;-36
2023/05/05 04:01:49;;;;;;;5.30;4.37;;;;;;;;;;5060833;28;20395;-38
2023/05/05 04:04:16;;;;;;;6.00;4.50;;;;;;;;;;5057568;28;20225;-33
2023/05/05 04:06:45;;;;;;;5.13;4.63;;;;;;;;;;5060323;28;20243;-38
2023/05/05 04:09:13;;;;;;;4.63;3.70;;;;;;;;;;5061499;28;20213;-36
2023/05/05 04:11:40;;;;;;;8.73;4.70;;;;;;;;;;5067698;28;20229;-38
2023/05/05 04:14:07;;;;;;;5.47;4.67;;;;;;;;;;5067781;28;20235;-33
2023/05/05 04:16:34;;;;;;;4.70;3.80;;;;;;;;;;5056875;28;20193;-37
2023/05/05 04:19:02;;;;;;;5.50;4.57;;;;;;;;;;5060216;28;20206;-37
2023/05/05 04:21:30;;;;;;;7.10;4.60;;;;;;;;;;5050438;28;20217;-33
2023/05/05 04:23:58;;;;;;;6.40;4.43;;;;;;;;;;5050127;28;20321;-38
2023/05/05 04:26:26;;;;;;;4.60;4.20;;;;;;;;;;5058722;28;20201;-36
2023/05/05 04:28:53;;;;;;;7.20;5.00;;;;;;;;;;5069656;28;20258;-32
2023/05/05 04:31:20;;;;;;;4.53;3.80;;;;;;;;;;5057035;28;20205;-35
2023/05/05 04:33:47;;;;;;;4.50;3.83;;;;;;;;;;5061676;28;20232;-33
2023/05/05 04:36:15;;;;;;;7.00;4.57;;;;;;;;;;5059224;28;20208;-29
2023/05/05 04:38:42;;;;;;;6.13;3.87;;;;;;;;;;5055598;28;20221;-34
2023/05/05 04:41:10;;;;;;;5.67;4.20;;;;;;;;;;5053806;28;20206;-35
2023/05/05 04:43:38;;;;;;;5.27;4.50;;;;;;;;;;5076417;28;20220;-35
2023/05/05 04:46:05;;;;;;;5.87;4.43;;;;;;;;;;5071066;28;20212;-32
2023/05/05 04:48:33;;;;;;;5.93;4.77;;;;;;;;;;5066160;28;20209;-33
2023/05/05 04:51:04;;;;;;;6.03;4.33;;;;;;;;;;5058902;28;20205;-33
2023/05/05 04:53:31;;;;;;;5.17;3.93;;;;;;;;;;5057527;28;20448;-32
2023/05/05 04:55:59;;;;;;;8.27;4.63;;;;;;;;;;5047857;28;20216;-32
2023/05/05 04:58:28;;;;;;;4.43;4.03;;;;;;;;;;5050252;28;20212;-33
2023/05/05 05:00:55;;;;;;;5.20;4.70;;;;;;;;;;5064478;28;20201;-37
2023/05/05 05:03:22;;;;;;;5.67;5.07;;;;;;;;;;5050885;28;20222;-35
2023/05/05 05:05:49;;;;;;;4.57;3.90;;;;;;;;;;5055578;28;20201;-34
2023/05/05 05:08:16;;;;;;;5.97;4.47;;;;;;;;;;5059936;28;20297;-35
2023/05/05 05:10:44;;;;;;;5.30;4.80;;;;;;;;;;5051788;28;20206;-33
2023/05/05 05:13:12;;;;;;;5.17;4.40;;;;;;;;;;5053494;28;20229;-30
2023/05/05 05:15:40;;;;;;;6.80;4.87;;;;;;;;;;5056113;28;20284;-35
2023/05/05 05:18:07;;;;;;;6.00;4.70;;;;;;;;;;5050437;28;20225;-34
2023/05/05 05:20:35;;;;;;;7.60;5.17;;;;;;;;;;5058834;28;20209;-33
2023/05/05 05:23:03;;;;;;;6.33;4.73;;;;;;;;;;5064328;28;20224;-34
2023/05/05 05:25:30;;;;;;;5.37;4.73;;;;;;;;;;5069009;28;20201;-33
2023/05/05 05:27:57;;;;;;;6.77;5.17;;;;;;;;;;5058286;28;20194;-38
2023/05/05 05:30:24;;;;;;;7.23;4.77;;;;;;;;;;5052487;28;20202;-32
2023/05/05 05:32:53;;;;;;;6.83;5.20;;;;;;;;;;5053173;28;20201;-35
2023/05/05 05:35:20;;;;;;;6.67;5.03;;;;;;;;;;5060128;28;20211;-36
2023/05/05 05:37:48;;;;;;;6.03;5.40;;;;;;;;;;5054629;28;20209;-39
2023/05/05 05:40:18;;;;;;;6.73;5.07;;;;;;;;;;5058926;28;20209;-35
2023/05/05 05:42:45;;;;;;;4.50;4.10;;;;;;;;;;5051007;28;20209;-32
2023/05/05 05:45:13;;;;;;;7.40;5.67;;;;;;;;;;5052985;28;20329;-35
2023/05/05 05:47:40;;;;;;;7.53;5.47;;;;;;;;;;5065291;28;20227;-38
2023/05/05 05:50:09;;;;;;;6.97;5.30;;;;;;;;;;5049425;28;20213;-37
2023/05/05 05:52:36;;;;;;;7.67;4.87;;;;;;;;;;5060492;28;20213;-32
2023/05/05 05:55:03;;;;;;;5.43;4.90;;;;;;;;;;5065340;28;20233;-30
2023/05/05 05:57:31;;;;;;;6.87;5.50;;;;;;;;;;5071442;28;20278;-31
2023/05/05 05:59:58;;;;;;;8.83;5.77;;;;;;;;;;5064096;28;20225;-33
2023/05/05 06:02:26;;;;;;;6.77;5.40;;;;;;;;;;5060424;28;20232;-35
2023/05/05 06:04:53;;;;;;;8.13;5.63;;;;;;;;;;5061755;28;20225;-35
2023/05/05 06:07:21;;;;;;;6.73;6.03;;;;;;;;;;5066174;28;20208;-31
2023/05/05 06:09:48;;;;;;;7.27;6.10;;;;;;;;;;5061194;28;20202;-35
2023/05/05 06:12:19;;;;;;;6.80;6.10;;;;;;;;;;5071179;28;20205;-34
2023/05/05 06:14:46;;;;;;;10.23;6.33;;;;;;;;;;5066783;28;20240;-37
2023/05/05 06:17:13;;;;;;;7.03;5.60;;;;;;;;;;5052384;28;20216;-33
2023/05/05 06:19:42;;;;;;;7.60;6.37;;;;;;;;;;5061567;28;20206;-30
2023/05/05 06:22:09;;;;;;;7.53;6.40;;;;;;;;;;5059490;28;20211;-39
2023/05/05 06:24:37;;;;;;;7.17;6.47;;;;;;;;;;5052072;28;20225;-37
2023/05/05 06:27:04;;;;;;;8.47;6.73;;;;;;;;;;5051392;28;20201;-36
2023/05/05 06:29:31;;;;;;;7.00;5.73;;;;;;;;;;5053043;28;20202;-38
2023/05/05 06:31:59;;;;;;;9.50;6.63;;;;;;;;;;5056865;28;20206;-32
2023/05/05 06:34:27;;;;;;;7.27;6.50;;;;;;;;;;5059128;28;20318;-33
2023/05/05 06:36:54;;;;;;;7.33;6.37;;;;;;;;;;5058228;28;20214;-35
2023/05/05 06:39:21;;;;;;;7.20;6.40;;;;;;;;;;5077529;28;20205;-39
2023/05/05 06:41:51;;;;;;;7.50;6.40;;;;;;;;;;5090474;28;20200;-37
2023/05/05 06:44:18;;;;;;;6.77;6.07;;;;;;;;;;5074204;28;20312;-33
2023/05/05 06:46:45;;;;;;;6.70;5.87;;;;;;;;;;5065836;28;20203;-36
2023/05/05 06:49:14;;;;;;;10.73;6.13;;;;;;;;;;5066477;28;20292;-36
2023/05/05 06:51:41;;;;;;;8.53;6.43;;;;;;;;;;5051492;28;20223;-33
2023/05/05 06:54:08;;;;;;;7.87;5.60;;;;;;;;;;5055964;28;20232;-33
2023/05/05 06:56:35;;;;;;;7.93;5.73;;;;;;;;;;5067084;28;20203;-31
2023/05/05 06:59:03;;;;;;;6.40;5.67;;;;;;;;;;5071297;28;20218;-35
2023/05/05 07:01:31;;;;;;;7.70;6.37;;;;;;;;;;5068146;28;20214;-36
2023/05/05 07:03:58;;;;;;;7.40;5.43;;;;;;;;;;5061370;28;20223;-29
2023/05/05 07:06:25;;;;;;;8.97;5.63;;;;;;;;;;5054870;28;20219;-32
2023/05/05 07:08:52;;;;;;;8.00;5.40;;;;;;;;;;5050483;28;20206;-34
2023/05/05 07:11:19;;;;;;;8.03;5.40;;;;;;;;;;5054958;28;20286;-35
2023/05/05 07:13:48;;;;;;;5.23;4.43;;;;;;;;;;5072798;28;20285;-38
2023/05/05 07:16:16;;;;;;;5.60;5.00;;;;;;;;;;5066619;28;20244;-34
2023/05/05 07:18:43;;;;;;;7.30;5.17;;;;;;;;;;5053070;28;20215;-36
2023/05/05 07:21:10;;;;;;;6.07;5.00;;;;;;;;;;5055689;28;20236;-36
2023/05/05 07:23:39;;;;;;;7.27;4.53;;;;;;;;;;5061732;28;20224;-37
2023/05/05 07:26:06;;;;;;;6.87;4.87;;;;;;;;;;5059260;28;20216;-29
2023/05/05 07:28:33;;;;;;;6.07;4.40;;;;;;;;;;5091215;28;20210;-33
2023/05/05 07:31:12;;;;;;;8.43;5.17;;;;;;;;;;5066545;28;20206;-31
2023/05/05 07:33:41;;;;;;;6.53;4.70;;;;;;;;;;5059169;28;20303;-30
2023/05/05 07:36:08;;;;;;;5.10;4.13;;;;;;;;;;5054805;28;20243;-33
2023/05/05 07:38:35;;;;;;;5.90;4.83;;;;;;;;;;5070316;28;20206;-33
2023/05/05 07:41:02;;;;;;;5.10;4.60;;;;;;;;;;5060071;28;20211;-33
2023/05/05 07:43:29;;;;;;;5.87;4.10;;;;;;;;;;5062783;28;20313;-34
2023/05/05 07:45:57;;;;;;;5.50;3.93;;;;;;;;;;5064643;28;20270;-34
2023/05/05 07:48:24;;;;;;;6.43;3.80;;;;;;;;;;5055976;28;20208;-34
2023/05/05 07:50:53;;;;;;;3.55;3.17;;;;;;;;;;5056079;28;20219;-35
2023/05/05 07:53:22;;;;;;;4.80;3.40;;;;;;;;;;5060137;28;20221;-37
2023/05/05 07:55:49;;;;;;;3.65;3.35;;;;;;;;;;5064489;28;20249;-33
2023/05/05 07:58:16;;;;;;;7.32;3.35;;;;;;;;;;5065757;28;20236;-34
2023/05/05 08:00:43;;;;;;;4.57;3.07;;;;;;;;;;5054218;28;20201;-36
2023/05/05 08:03:10;;;;;;;3.67;2.97;;;;;;;;;;5068967;28;20204;-34
2023/05/05 08:05:38;;;;;;;2.83;2.40;;;;;;;;;;5311429;22;20368;-34
2023/05/05 08:08:07;;;;;;;2.92;2.50;;;;;;;;;;5050312;28;20205;-35
2023/05/05 08:10:34;;;;;;;3.17;2.85;;;;;;;;;;5044950;28;20212;-32
2023/05/05 08:13:09;;;;;;;5.63;3.38;;;;;;;;;;5047833;28;20519;-33
2023/05/05 08:15:36;;;;;;;4.55;2.53;;;;;;;;;;5036829;28;20214;-32
2023/05/05 08:18:03;;;;;;;2.97;2.40;;;;;;;;;;5043331;28;20220;-33
2023/05/05 08:20:30;;;;;;;3.13;2.75;;;;;;;;;;5040771;28;20207;-32
2023/05/05 08:22:58;;;;;;;4.03;2.60;;;;;;;;;;5041028;28;20218;-32
2023/05/05 08:25:26;;;;;;;3.90;2.20;;;;;;;;;;5039752;28;20219;-33
2023/05/05 08:27:53;;;;;;;6.97;2.87;;;;;;;;;;5031751;28;20202;-33
2023/05/05 08:30:21;;;;;;;7.73;2.57;;;;;;;;;;5031997;28;20205;-34
2023/05/05 08:32:48;;;;;;;2.70;2.50;;;;;;;;;;5043405;28;20211;-34
2023/05/05 08:35:16;;;;;;;3.20;2.07;;;;;;;;;;5039012;28;20312;-34
2023/05/05 08:37:44;;;;;;;2.93;2.23;;;;;;;;;;5045047;28;20209;-33
2023/05/05 08:40:13;;;;;;;3.00;2.30;;;;;;;;;;5041389;28;20320;-33
2023/05/05 08:42:43;;;;;;;2.60;1.80;;;;;;;;;;5040671;28;20259;-32
2023/05/05 08:45:10;;;;;;;3.37;1.80;;;;;;;;;;5037250;28;20221;-32
2023/05/05 08:47:38;;;;;;;2.13;1.73;;;;;;;;;;5037711;28;20231;-32
2023/05/05 08:50:05;;;;;;;2.73;1.50;;;;;;;;;;5043342;28;20217;-34
2023/05/05 08:52:38;;;;;;;1.77;1.50;;;;;;;;;;5042616;28;20381;-36
2023/05/05 08:55:10;;;;;;;2.23;2.13;;;;;;;;;;5045919;28;20249;-32
2023/05/05 08:57:41;;;;;;;2.63;2.00;;;;;;;;;;5043703;28;20204;-34
2023/05/05 09:00:11;;;;;;;2.07;1.97;;;;;;;;;;5040533;28;20417;-35
2023/05/05 09:02:39;;;;;;;3.37;2.07;;;;;;;;;;5042013;28;20205;-34
2023/05/05 09:05:07;;;;;;;2.87;2.17;;;;;;;;;;5039827;28;20691;-33
2023/05/05 09:07:34;;;;;;;2.33;1.97;;;;;;;;;;5045189;28;20219;-34
2023/05/05 09:10:04;;;;;;;3.33;1.97;;;;;;;;;;5041791;28;20212;-35
2023/05/05 09:12:31;;;;;;;1.70;1.60;;;;;;;;;;5042783;28;20202;-35
2023/05/05 09:15:02;;;;;;;2.20;2.00;;;;;;;;;;5037279;28;20248;-36
2023/05/05 09:17:30;;;;;;;3.60;1.73;;;;;;;;;;5042949;28;20231;-33
2023/05/05 09:20:07;;;;;;;1.77;1.60;;;;;;;;;;5037569;28;20252;-35
2023/05/05 09:22:36;;;;;;;2.40;2.20;;;;;;;;;;5043194;28;20202;-33
2023/05/05 09:25:03;;;;;;;2.00;1.90;;;;;;;;;;5039566;28;20216;-34
2023/05/05 09:27:30;;;;;;;3.37;2.07;;;;;;;;;;5040352;28;20203;-35
2023/05/05 09:29:58;;;;;;;4.73;1.90;;;;;;;;;;5039980;28;20206;-34
2023/05/05 09:32:25;;;;;;;2.80;2.20;;;;;;;;;;5041072;28;20299;-32
2023/05/05 09:35:00;;;;;;;2.17;2.03;;;;;;;;;;5042544;28;20665;-33
2023/05/05 09:37:28;;;;;;;1.73;1.63;;;;;;;;;;5043978;28;20209;-33
2023/05/05 09:39:56;;;;;;;2.57;2.03;;;;;;;;;;5043074;28;20204;-33
2023/05/05 09:42:23;;;;;;;4.87;2.40;;;;;;;;;;5041369;28;20200;-34
2023/05/05 09:44:51;;;;;;;1.90;1.80;;;;;;;;;;5038526;28;20223;-35
2023/05/05 09:47:18;;;;;;;3.87;2.70;;;;;;;;;;5044123;28;20240;-33
2023/05/05 09:49:45;;;;;;;3.67;2.30;;;;;;;;;;5044367;28;20215;-34
2023/05/05 09:52:14;;;;;;;2.30;2.10;;;;;;;;;;5041924;28;20219;-33
2023/05/05 09:54:42;;;;;;;2.50;2.30;;;;;;;;;;5040468;28;20269;-32
2023/05/05 09:57:09;;;;;;;3.27;2.20;;;;;;;;;;5041806;28;20212;-34
2023/05/05 09:59:37;;;;;;;3.90;2.80;;;;;;;;;;5037440;28;20249;-35
2023/05/05 10:02:11;;;;;;;3.97;2.87;;;;;;;;;;5038431;28;20207;-34
2023/05/05 10:04:39;;;;;;;4.17;2.67;;;;;;;;;;5047831;28;20274;-34
2023/05/05 10:07:06;;;;;;;2.57;2.13;;;;;;;;;;5046264;28;20211;-34
2023/05/05 10:09:34;;;;;;;3.03;2.23;;;;;;;;;;5039402;28;20208;-33
2023/05/05 10:12:02;;;;;;;3.43;2.20;;;;;;;;;;5045629;28;20212;-34
2023/05/05 10:14:32;;;;;;;3.23;2.37;;;;;;;;;;5036827;28;20240;-32
2023/05/05 10:17:01;;;;;;;4.03;2.63;;;;;;;;;;5043753;28;20204;-34
2023/05/05 10:19:29;;;;;;;5.13;2.53;;;;;;;;;;5046413;28;20222;-32
2023/05/05 10:22:00;;;;;;;4.20;2.30;;;;;;;;;;5040938;28;20201;-32
2023/05/05 10:24:34;;;;;;;2.73;2.40;;;;;;;;;;5037881;28;20233;-32
2023/05/05 10:27:03;;;;;;;2.43;2.00;;;;;;;;;;5040239;28;20215;-32
2023/05/05 10:29:37;;;;;;;2.97;2.10;;;;;;;;;;5038085;28;20205;-32
2023/05/05 10:32:06;;;;;;;4.10;1.77;;;;;;;;;;5041262;28;20719;-32
2023/05/05 10:34:38;;;;;;;2.80;1.70;;;;;;;;;;5042601;28;20264;-32
2023/05/05 10:37:06;;;;;;;3.70;1.77;;;;;;;;;;5039318;28;20220;-32
2023/05/05 10:39:37;;;;;;;3.67;2.17;;;;;;;;;;5044649;28;20216;-34
2023/05/05 10:42:06;;;;;;;2.47;1.57;;;;;;;;;;5040916;28;20205;-31
2023/05/05 10:44:33;;;;;;;3.17;1.90;;;;;;;;;;5044513;28;20726;-35
2023/05/05 10:47:00;;;;;;;1.80;1.70;;;;;;;;;;5041021;28;20672;-33
2023/05/05 10:49:32;;;;;;;2.00;1.90;;;;;;;;;;5040776;28;20209;-34
2023/05/05 10:52:06;;;;;;;2.23;1.97;;;;;;;;;;5040077;28;20217;-35
2023/05/05 10:54:35;;;;;;;6.60;2.30;;;;;;;;;;5044648;28;20225;-30
2023/05/05 10:57:03;;;;;;;4.50;1.87;;;;;;;;;;5037199;28;20217;-31
2023/05/05 10:59:41;;;;;;;2.23;1.63;;;;;;;;;;5040350;28;20213;-35
2023/05/05 11:02:22;;;;;;;2.87;1.73;;;;;;;;;;5041894;28;20206;-32
2023/05/05 11:05:05;;;;;;;2.00;1.80;;;;;;;;;;5041691;28;20225;-34
2023/05/05 11:07:33;;;;;;;1.77;1.67;;;;;;;;;;5047541;28;20292;-34
2023/05/05 11:10:01;;;;;;;1.80;1.20;;;;;;;;;;5036396;28;20299;-34
2023/05/05 11:12:28;;;;;;;1.50;1.30;;;;;;;;;;5045702;28;20648;-30
2023/05/05 11:15:14;;;;;;;1.50;1.40;;;;;;;;;;5044974;28;20242;-31
2023/05/05 11:17:46;;;;;;;1.97;1.53;;;;;;;;;;5039009;28;20214;-31
2023/05/05 11:20:14;;;;;;;2.47;1.57;;;;;;;;;;5043094;28;20206;-35
2023/05/05 11:22:56;;;;;;;2.73;1.50;;;;;;;;;;5043345;28;20205;-32
2023/05/05 11:25:43;;;;;;;3.43;1.47;;;;;;;;;;5033109;28;20271;-31
2023/05/05 11:28:11;;;;;;;2.20;1.60;;;;;;;;;;5038076;28;20199;-33
2023/05/05 11:31:11;;;;;;;1.93;1.60;;;;;;;;;;5038609;28;20199;-33
2023/05/05 11:33:40;;;;;;;1.57;1.43;;;;;;;;;;5040014;28;20218;-32
2023/05/05 11:36:08;;;;;;;1.60;1.50;;;;;;;;;;5036422;28;20225;-32
2023/05/05 11:38:42;;;;;;;2.03;1.67;;;;;;;;;;5042194;28;20206;-32
2023/05/05 11:41:13;;;;;;;5.40;1.50;;;;;;;;;;5046142;28;20199;-34
2023/05/05 11:43:41;;;;;;;2.00;1.80;;;;;;;;;;5045761;28;20225;-35
2023/05/05 11:46:11;;;;;;;1.47;1.37;;;;;;;;;;5043362;28;20202;-31
2023/05/05 11:48:46;;;;;;;4.73;1.70;;;;;;;;;;5045544;28;20209;-35
2023/05/05 11:51:13;;;;;;;2.93;1.83;;;;;;;;;;5045528;28;20209;-32
2023/05/05 11:53:42;;;;;;;1.70;1.60;;;;;;;;;;5045643;28;20226;-34
2023/05/05 11:56:10;;;;;;;2.90;1.73;;;;;;;;;;5038737;28;20226;-34
2023/05/05 11:58:37;;;;;;;4.05;1.75;;;;;;;;;;5050738;28;20202;-34
2023/05/05 12:01:05;;;;;;;3.27;1.50;;;;;;;;;;5042416;28;20216;-32
2023/05/05 12:03:35;;;;;;;3.23;2.00;;;;;;;;;;5039776;28;20225;-32
2023/05/05 12:06:03;;;;;;;1.83;1.47;;;;;;;;;;5033249;28;20209;-34
2023/05/05 12:08:36;;;;;;;1.60;1.48;;;;;;;;;;5044223;28;20212;-36
2023/05/05 12:11:03;;;;;;;1.90;1.70;;;;;;;;;;5039389;28;20280;-35
2023/05/05 12:13:30;;;;;;;1.77;1.67;;;;;;;;;;5044864;28;20230;-32
2023/05/05 12:15:57;;;;;;;1.58;1.48;;;;;;;;;;5033204;28;20245;-30
2023/05/05 12:18:24;;;;;;;2.72;1.80;;;;;;;;;;5041487;28;20209;-34
2023/05/05 12:20:51;;;;;;;1.63;1.50;;;;;;;;;;5037981;28;20202;-34
2023/05/05 12:23:20;;;;;;;2.92;1.58;;;;;;;;;;5041482;28;20233;-32
2023/05/05 12:25:47;;;;;;;1.73;1.50;;;;;;;;;;5037922;28;20386;-34
2023/05/05 12:28:14;;;;;;;1.52;1.40;;;;;;;;;;5038836;28;20195;-33
2023/05/05 12:30:41;;;;;;;2.35;1.73;;;;;;;;;;5044553;28;20203;-30
2023/05/05 12:33:09;;;;;;;3.67;1.90;;;;;;;;;;5044977;28;20205;-32
2023/05/05 12:35:36;;;;;;;1.77;1.30;;;;;;;;;;5041293;28;20230;-32
2023/05/05 12:38:03;;;;;;;2.25;1.98;;;;;;;;;;5047637;28;20206;-33
2023/05/05 12:40:45;;;;;;;1.98;1.77;;;;;;;;;;5044361;28;20210;-33
2023/05/05 12:43:23;;;;;;;2.65;1.55;;;;;;;;;;5041350;28;20208;-34
2023/05/05 12:45:59;;;;;;;1.65;1.55;;;;;;;;;;5038729;28;20196;-32
2023/05/05 12:48:26;;;;;;;1.83;1.67;;;;;;;;;;5039811;28;20198;-32
2023/05/05 12:50:53;;;;;;;1.85;1.70;;;;;;;;;;5042049;28;20200;-32
2023/05/05 12:53:23;;;;;;;2.58;1.52;;;;;;;;;;5047951;28;20227;-33
2023/05/05 12:55:52;;;;;;;1.75;1.48;;;;;;;;;;5045474;28;20309;-32
2023/05/05 12:58:19;;;;;;;1.73;1.55;;;;;;;;;;5042305;28;20214;-32
2023/05/05 13:00:46;;;;;;;2.20;1.98;;;;;;;;;;5045016;28;20226;-34
2023/05/05 13:03:19;;;;;;;1.65;1.50;;;;;;;;;;5039744;28;20225;-33
2023/05/05 13:05:46;;;;;;;1.60;1.50;;;;;;;;;;5047625;28;20227;-36
2023/05/05 13:08:14;;;;;;;5.57;1.70;;;;;;;;;;5039852;28;20206;-32
2023/05/05 13:10:56;;;;;;;1.75;1.42;;;;;;;;;;5043591;28;20297;-33
2023/05/05 13:13:26;;;;;;;1.60;1.50;;;;;;;;;;5052919;28;20225;-31
2023/05/05 13:15:53;;;;;;;4.20;2.00;;;;;;;;;;5038500;28;20224;-33
2023/05/05 13:18:26;;;;;;;2.20;1.38;;;;;;;;;;5045276;28;20211;-31
2023/05/05 13:20:54;;;;;;;3.65;1.60;;;;;;;;;;5043434;28;20202;-32
2023/05/05 13:23:21;;;;;;;1.52;1.42;;;;;;;;;;5044175;28;20308;-31
2023/05/05 13:25:48;;;;;;;1.73;1.42;;;;;;;;;;5043284;28;20199;-33
2023/05/05 13:28:15;;;;;;;2.33;1.45;;;;;;;;;;5045773;28;20294;-32
2023/05/05 13:30:44;;;;;;;2.75;1.63;;;;;;;;;;5043073;28;20210;-31
2023/05/05 13:33:11;;;;;;;4.35;1.70;;;;;;;;;;5043835;28;20211;-31
2023/05/05 13:35:38;;;;;;;2.75;1.70;;;;;;;;;;5041220;28;20230;-30
2023/05/05 13:38:05;;;;;;;2.92;1.70;;;;;;;;;;5047103;28;20244;-32
2023/05/05 13:40:32;;;;;;;1.70;1.60;;;;;;;;;;5047312;28;20241;-35
2023/05/05 13:43:01;;;;;;;1.80;1.70;;;;;;;;;;5047956;28;20214;-32
2023/05/05 13:45:28;;;;;;;2.58;1.80;;;;;;;;;;5039868;28;20261;-31
2023/05/05 13:47:57;;;;;;;2.00;1.70;;;;;;;;;;5039929;28;20264;-35
2023/05/05 13:50:24;;;;;;;2.80;1.77;;;;;;;;;;5041758;28;20203;-35
2023/05/05 13:52:54;;;;;;;2.20;1.63;;;;;;;;;;5035860;28;20214;-32
2023/05/05 13:55:21;;;;;;;2.92;1.88;;;;;;;;;;5045861;28;20233;-33
2023/05/05 13:57:49;;;;;;;2.40;1.55;;;;;;;;;;5044599;28;20217;-31
2023/05/05 14:00:16;;;;;;;3.38;1.67;;;;;;;;;;5039641;28;20261;-34
2023/05/05 14:02:44;;;;;;;2.13;1.27;;;;;;;;;;5041862;28;20217;-34
2023/05/05 14:05:12;;;;;;;2.58;2.20;;;;;;;;;;5041821;28;20258;-30
2023/05/05 14:07:40;;;;;;;5.15;1.75;;;;;;;;;;5039893;28;20220;-34
2023/05/05 14:10:08;;;;;;;2.55;1.73;;;;;;;;;;5047397;28;20239;-30
2023/05/05 14:12:35;;;;;;;2.25;1.73;;;;;;;;;;5054628;28;20227;-31
2023/05/05 14:15:02;;;;;;;3.25;1.70;;;;;;;;;;5043278;28;20218;-34
2023/05/05 14:17:30;;;;;;;2.90;1.65;;;;;;;;;;5045270;28;20313;-34
2023/05/05 14:19:57;;;;;;;3.67;1.70;;;;;;;;;;5035181;28;20208;-31
2023/05/05 14:22:26;;;;;;;4.80;2.45;;;;;;;;;;5049092;28;20221;-33
2023/05/05 14:24:53;;;;;;;2.15;1.95;;;;;;;;;;5041526;28;20218;-31
2023/05/05 14:27:20;;;;;;;4.05;1.70;;;;;;;;;;5042806;28;20204;-33
2023/05/05 14:29:48;;;;;;;2.15;2.05;;;;;;;;;;5041558;28;20294;-34
2023/05/05 14:32:15;;;;;;;2.63;2.03;;;;;;;;;;5046875;28;20349;-32
2023/05/05 14:34:43;;;;;;;2.20;2.00;;;;;;;;;;5036869;28;20249;-31
2023/05/05 14:37:10;;;;;;;2.30;1.90;;;;;;;;;;5044779;28;20222;-32
2023/05/05 14:39:47;;;;;;;1.70;1.60;;;;;;;;;;5045561;28;20202;-34
2023/05/05 14:42:15;;;;;;;1.80;1.70;;;;;;;;;;5053410;28;20257;-32
2023/05/05 14:44:42;;;;;;;2.17;1.92;;;;;;;;;;5039312;28;20259;-33
2023/05/05 14:47:10;;;;;;;3.22;2.15;;;;;;;;;;5043329;28;20214;-31
2023/05/05 14:49:37;;;;;;;1.92;1.83;;;;;;;;;;5052837;28;20228;-34
2023/05/05 14:52:07;;;;;;;2.92;1.83;;;;;;;;;;5044685;28;20213;-35